Accueil
METAR-TAF:

METAR-TAF

Aéroports :

Marham, Angleterre

latitude: 52-39N, longitude: 000-34E, altitude: 23 m

Observation

Le bulletin a été fait il y a 55 minutes, à 00:50 UTC
Vent 17 kt de sud/sud-ouest
Température 12°C
Humidité 67%
Pression 1015 hPa
Visibilité 10 km ou plus

METAR: EGYM 170050Z AUTO 21017KT 9999 NCD 12/06 Q1015

Heure: 02:45 (01:45 UTC)

Prévision

Le bulletin a été fait il y a 8 heures et 48 minutes, à 16:57 UTC
Prévision valable du 16 à 18 UTC au 17 à 03 UTC
Vent 22 kt de sud/sud-ouest avec des rafales jusqu'à 38 kt
Visibilité 10 km ou plus
Quelques nuages à une hauteur de 2500 ft

TAF: EGYM 161657Z 1618/1703 20022G38KT 9999 FEW025

Observations et prévisions météorologiques de plus de 4000 aéroports (messages METAR et TAF).

Les stations disponibles sont représentées par des disques jaunes et rouges sur la carte.

Passer la souris dessus pour voir le nom de la station.

Cliquer dessus pour voir les observations et prévisions météorologiques.

Pour changer de carte: cliquez sur les boutons verts avec une croix noire pour zoomer, sur le bouton vert avec un tiret pour effectuer un zoom arrière, ou sur les flèches vertes pour les cartes adjacentes.


METAR-TAF: